Mc Clures Bend, Tennessee
Current Conditions -  °F | °C
As of 2:55 AM on Saturday 22 Nov 2014 (Local Time) from KSRB Reporting Station
Clear Clear  
Wind Chill: 39°   Ceiling: Unl
Heat Index: 39°   Visibility: 10mi
Dew Point: 21°   Wind: 3mph
Humidity: 49%   Direction: 180°S
Pressure: 30.38"   Gusts: NA
Location:  36.2454°N, 86.0046°W
Report Text: KSRB 220855Z AUTO 18003KT 10SM CLR 04/M06 A3038 RMK
Loading
Personal Weather Stations






























Interactive Weather Map New forecast layout! Learn more

10-Day Weather Forecast

Advertisements
Track Severe Weather on mobile